Rzeszow, Poland

9:11 PM CEST on August 21, 2014 (GMT +0200)
Rzeszow | Change Station
CLOSE
Current Station
Personal Weather Station
Location: Rzeszow, PODKARPACIE
Elevation: 705 ft
Nearby Weather Stations

Elev 705 ft 50.07 °N, 21.97 °E | Updated 56 seconds ago

Clear
Clear
49.8 °F
Feels Like 50 °F
N
0.1
Wind Variable Wind from South
Gusts 2.2 mph

Today
High -- | Low -- °F
--% Chance of Precip.
Yesterday
High -- | Low -- °F
Precip. -- in
5:29 AM 7:39 PM
Waning Crescent, 13% visible
Pressure 30.06 in
Visibility -9999.0 miles
Clouds
Windchill 50 °F
Dew Point 50 °F
Humidity 99%
Rainfall 0.41 in
Snow Depth Not available.
UV Not available.
Pollen Not available.
Air Quality Not available.
Flu Activity Not available.
METAR EPRZ 211900Z 31002KT CAVOK 10/10 Q1018

More Conditions Fewer Conditions

Pressure 30.06 in
Visibility -9999.0 miles
Clouds
Windchill 50 °F
Dew Point 50 °F
Humidity 99%
Rainfall 0.41 in
Snow Depth Not available.
UV Not available.
Pollen Not available.
Air Quality Not available.
Flu Activity Not available.
METAR EPRZ 211900Z 31002KT CAVOK 10/10 Q1018

More Conditions Fewer Conditions

10-Day Weather Forecast

Almanac

Astronomy

Aug. 21, 2014 Rise Set
Actual Time 5:29 AM CEST 7:39 PM CEST
Civil Twilight 4:54 AM CEST 8:14 PM CEST
Nautical Twilight 4:10 AM CEST 8:57 PM CEST
Astronomical Twilight 3:20 AM CEST 9:47 PM CEST
Moon 1:33 AM CEST 5:03 PM CEST
Length of Visible Light 15h 19m
Length of Day
14h 09m
Tomorrow will be 3m 30s shorter.
Waning Crescent, 13% of the Moon is Illuminated
Today
Waning Crescent
Aug 25
New
Sep 2
First Quarter
Sep 8
Full
Sep 15
Last Quarter

Today's Extremes

Country Highs Country Lows

Community

WunderPhotos

Upload Photos

1,746,005 photos uploaded!

WunderBlogs® & News

Nearby

Snow Depth

Not available.

Earthquake Activity

City Distance Mag. Time & Date
No recent earthquake activity has been reported nearby.
Minimum magnitude displayed is 2.5.

Coastal Water Temperatures

Place Temperature
No Stations Reporting

Nearby Weather Stations